Time,TemperatureF,DewpointF,PressureIn,WindDirection,WindDirectionDegrees,WindSpeedMPH,WindSpeedGustMPH,Humidity,HourlyPrecipIn,Conditions,Clouds,dailyrainin,SolarRadiationWatts/m^2,SoftwareType,DateUTC
2013-11-16 00:05:00,55.8,54.7,29.96,West,275,0.0,0.0,96,0.00,,,0.31,0,Wunderground v.1.15,2013-11-16 05:05:00,
2013-11-16 00:10:00,55.7,54.6,29.95,West,275,0.0,0.0,96,0.00,,,0.31,0,Wunderground v.1.15,2013-11-16 05:10:00,
2013-11-16 00:15:00,55.7,54.6,29.95,West,275,0.0,0.0,96,0.00,,,0.31,0,Wunderground v.1.15,2013-11-16 05:15:00,
2013-11-16 00:20:00,55.6,54.5,29.95,West,275,0.0,0.0,96,0.00,,,0.31,0,Wunderground v.1.15,2013-11-16 05:20:00,
2013-11-16 00:25:00,55.6,54.5,29.95,West,275,0.0,0.0,96,0.00,,,0.31,0,Wunderground v.1.15,2013-11-16 05:25:00,
2013-11-16 00:30:00,55.5,54.4,29.95,West,275,0.0,0.0,96,0.00,,,0.31,0,Wunderground v.1.15,2013-11-16 05:30:00,
2013-11-16 00:35:00,55.4,54.3,29.95,West,275,0.0,0.0,96,0.00,,,0.31,0,Wunderground v.1.15,2013-11-16 05:35:00,
2013-11-16 00:40:00,55.5,54.4,29.95,West,275,0.0,0.0,96,0.00,,,0.31,0,Wunderground v.1.15,2013-11-16 05:40:00,
2013-11-16 00:45:00,55.6,54.8,29.95,West,275,0.0,0.0,97,0.00,,,0.31,0,Wunderground v.1.15,2013-11-16 05:45:00,
2013-11-16 00:50:00,55.8,55.0,29.95,West,275,0.0,0.0,97,0.00,,,0.31,0,Wunderground v.1.15,2013-11-16 05:50:00,
2013-11-16 01:00:00,56.1,55.3,29.95,West,275,0.0,0.0,97,0.00,,,0.31,0,Wunderground v.1.15,2013-11-16 06:00:00,
2013-11-16 01:10:00,56.3,55.5,29.95,West,275,0.0,1.0,97,0.00,,,0.00,0,Wunderground v.1.15,2013-11-16 06:10:00,
2013-11-16 01:15:00,56.5,55.7,29.95,SW,219,0.0,1.0,97,0.00,,,0.00,0,Wunderground v.1.15,2013-11-16 06:15:00,
2013-11-16 01:20:00,56.7,55.9,29.95,South,170,0.0,1.0,97,0.00,,,0.00,0,Wunderground v.1.15,2013-11-16 06:20:00,
2013-11-16 01:30:00,57.2,56.4,29.94,SSE,154,0.0,1.0,97,0.00,,,0.00,0,Wunderground v.1.15,2013-11-16 06:30:00,
2013-11-16 01:40:00,58.0,57.2,29.95,SSE,150,1.0,1.0,97,0.00,,,0.00,0,Wunderground v.1.15,2013-11-16 06:40:00,
2013-11-16 01:50:00,58.4,57.8,29.95,SSE,150,0.0,1.0,98,0.00,,,0.00,0,Wunderground v.1.15,2013-11-16 06:50:00,
2013-11-16 02:00:00,58.9,58.1,29.95,SE,145,1.0,1.0,97,0.00,,,0.00,0,Wunderground v.1.15,2013-11-16 07:00:00,
2013-11-16 02:05:00,59.1,58.5,29.95,SE,137,1.0,1.0,98,0.00,,,0.00,0,Wunderground v.1.15,2013-11-16 07:05:00,
2013-11-16 02:15:00,59.3,58.7,29.95,SE,140,0.0,1.0,98,0.00,,,0.00,0,Wunderground v.1.15,2013-11-16 07:15:00,
2013-11-16 02:20:00,59.4,58.8,29.95,NW,318,0.0,1.0,98,0.00,,,0.00,0,Wunderground v.1.15,2013-11-16 07:20:00,
2013-11-16 02:30:00,59.4,58.8,29.95,NW,310,0.0,1.0,98,0.00,,,0.00,0,Wunderground v.1.15,2013-11-16 07:30:00,
2013-11-16 02:40:00,59.5,58.9,29.95,NW,323,0.0,1.0,98,0.00,,,0.00,0,Wunderground v.1.15,2013-11-16 07:40:00,
2013-11-16 02:50:00,59.5,58.9,29.95,WNW,295,0.0,1.0,98,0.00,,,0.00,0,Wunderground v.1.15,2013-11-16 07:50:00,
2013-11-16 02:55:00,59.5,58.9,29.95,SE,125,0.0,1.0,98,0.00,,,0.00,0,Wunderground v.1.15,2013-11-16 07:55:00,
2013-11-16 03:00:00,59.6,59.0,29.95,East,101,0.0,1.0,98,0.00,,,0.00,0,Wunderground v.1.15,2013-11-16 08:00:00,
2013-11-16 03:10:00,59.7,59.1,29.95,SE,142,0.0,1.0,98,0.00,,,0.00,0,Wunderground v.1.15,2013-11-16 08:10:00,
2013-11-16 03:15:00,59.7,59.1,29.94,SE,142,0.0,1.0,98,0.00,,,0.00,0,Wunderground v.1.15,2013-11-16 08:15:00,
2013-11-16 03:25:00,59.8,58.9,29.94,ENE,77,0.0,1.0,97,0.00,,,0.00,0,Wunderground v.1.15,2013-11-16 08:25:00,
2013-11-16 03:35:00,60.0,59.1,29.94,SE,132,0.0,1.0,97,0.00,,,0.00,0,Wunderground v.1.15,2013-11-16 08:35:00,
2013-11-16 03:40:00,60.1,59.2,29.94,NW,321,0.0,1.0,97,0.00,,,0.00,0,Wunderground v.1.15,2013-11-16 08:40:00,
2013-11-16 03:50:00,60.3,59.7,29.94,NW,321,0.0,1.0,98,0.00,,,0.00,0,Wunderground v.1.15,2013-11-16 08:50:00,
2013-11-16 03:55:00,60.4,59.8,29.94,NW,321,0.0,1.0,98,0.00,,,0.00,0,Wunderground v.1.15,2013-11-16 08:55:00,
2013-11-16 04:05:00,60.6,60.0,29.94,NW,321,0.0,1.0,98,0.00,,,0.00,0,Wunderground v.1.15,2013-11-16 09:05:00,
2013-11-16 04:15:00,60.5,59.9,29.94,NW,321,0.0,1.0,98,0.00,,,0.00,0,Wunderground v.1.15,2013-11-16 09:15:00,
2013-11-16 04:20:00,60.5,59.9,29.93,NW,321,0.0,1.0,98,0.00,,,0.00,0,Wunderground v.1.15,2013-11-16 09:20:00,
2013-11-16 04:25:00,60.6,60.0,29.93,NW,321,0.0,1.0,98,0.00,,,0.00,0,Wunderground v.1.15,2013-11-16 09:25:00,
2013-11-16 04:35:00,60.7,60.1,29.93,WNW,302,0.0,1.0,98,0.00,,,0.00,0,Wunderground v.1.15,2013-11-16 09:35:00,
2013-11-16 04:45:00,60.8,60.2,29.93,WNW,302,0.0,1.0,98,0.00,,,0.00,0,Wunderground v.1.15,2013-11-16 09:45:00,
2013-11-16 04:55:00,60.9,60.3,29.93,WNW,302,0.0,1.0,98,0.00,,,0.00,0,Wunderground v.1.15,2013-11-16 09:55:00,
2013-11-16 05:00:00,60.9,60.3,29.93,WNW,302,0.0,1.0,98,0.00,,,0.00,0,Wunderground v.1.15,2013-11-16 10:00:00,
2013-11-16 05:10:00,61.1,60.5,29.93,North,360,0.0,1.0,98,0.00,,,0.01,0,Wunderground v.1.15,2013-11-16 10:10:00,
2013-11-16 05:20:00,61.3,60.7,29.93,North,360,0.0,1.0,98,0.00,,,0.01,0,Wunderground v.1.15,2013-11-16 10:20:00,
2013-11-16 05:30:00,61.4,60.8,29.93,North,360,0.0,1.0,98,0.00,,,0.01,0,Wunderground v.1.15,2013-11-16 10:30:00,
2013-11-16 05:40:00,61.5,60.9,29.93,North,360,0.0,1.0,98,0.00,,,0.01,0,Wunderground v.1.15,2013-11-16 10:40:00,
2013-11-16 05:50:00,61.6,61.0,29.93,North,360,0.0,1.0,98,0.00,,,0.01,0,Wunderground v.1.15,2013-11-16 10:50:00,
2013-11-16 06:00:00,61.7,61.1,29.93,East,86,0.0,1.0,98,0.00,,,0.01,0,Wunderground v.1.15,2013-11-16 11:00:00,
2013-11-16 06:10:00,61.7,61.1,29.93,NNW,348,0.0,1.0,98,0.00,,,0.01,0,Wunderground v.1.15,2013-11-16 11:10:00,
2013-11-16 06:20:00,61.6,61.0,29.93,NNW,348,0.0,1.0,98,0.00,,,0.01,0,Wunderground v.1.15,2013-11-16 11:20:00,
2013-11-16 06:30:00,61.7,61.1,29.92,NNW,348,0.0,1.0,98,0.00,,,0.01,0,Wunderground v.1.15,2013-11-16 11:30:00,
2013-11-16 06:40:00,61.7,61.1,29.92,NNW,348,0.0,1.0,98,0.00,,,0.01,0,Wunderground v.1.15,2013-11-16 11:40:00,
2013-11-16 06:50:00,61.7,61.1,29.92,NNW,348,0.0,1.0,98,0.00,,,0.01,0,Wunderground v.1.15,2013-11-16 11:50:00,
2013-11-16 07:00:00,61.5,60.9,29.92,NE,34,0.0,0.0,98,0.00,,,0.01,0,Wunderground v.1.15,2013-11-16 12:00:00,
2013-11-16 07:05:00,61.5,60.9,29.93,NE,34,0.0,2.0,98,0.00,,,0.01,0,Wunderground v.1.15,2013-11-16 12:05:00,
2013-11-16 07:15:00,61.3,60.7,29.93,NE,34,0.0,2.0,98,0.00,,,0.01,0,Wunderground v.1.15,2013-11-16 12:15:00,
2013-11-16 07:25:00,61.2,60.6,29.93,NE,34,0.0,2.0,98,0.00,,,0.01,0,Wunderground v.1.15,2013-11-16 12:25:00,
2013-11-16 07:35:00,61.2,60.6,29.93,NE,34,0.0,2.0,98,0.00,,,0.01,0,Wunderground v.1.15,2013-11-16 12:35:00,
2013-11-16 07:45:00,61.2,60.6,29.93,NE,34,0.0,2.0,98,0.00,,,0.01,0,Wunderground v.1.15,2013-11-16 12:45:00,
2013-11-16 07:50:00,61.2,60.6,29.93,NE,34,0.0,2.0,98,0.00,,,0.01,0,Wunderground v.1.15,2013-11-16 12:50:00,
2013-11-16 08:00:00,61.2,60.6,29.94,NE,34,0.0,2.0,98,0.00,,,0.01,0,Wunderground v.1.15,2013-11-16 13:00:00,
2013-11-16 08:10:00,61.2,60.6,29.94,NE,34,0.0,2.0,98,0.00,,,0.01,7,Wunderground v.1.15,2013-11-16 13:10:00,
2013-11-16 08:20:00,61.2,60.6,29.93,NE,34,0.0,2.0,98,0.00,,,0.01,7,Wunderground v.1.15,2013-11-16 13:20:00,
2013-11-16 08:30:00,61.3,60.7,29.94,NE,34,0.0,2.0,98,0.00,,,0.01,11,Wunderground v.1.15,2013-11-16 13:30:00,
2013-11-16 08:35:00,61.3,60.7,29.94,NE,34,0.0,2.0,98,0.00,,,0.01,16,Wunderground v.1.15,2013-11-16 13:35:00,
2013-11-16 08:40:00,61.3,60.7,29.94,NE,34,0.0,2.0,98,0.00,,,0.01,11,Wunderground v.1.15,2013-11-16 13:40:00,
2013-11-16 08:50:00,61.4,60.8,29.95,NE,34,0.0,2.0,98,0.00,,,0.01,21,Wunderground v.1.15,2013-11-16 13:50:00,
2013-11-16 09:00:00,61.6,61.0,29.95,NE,34,0.0,2.0,98,0.00,,,0.01,28,Wunderground v.1.15,2013-11-16 14:00:00,
2013-11-16 09:10:00,61.6,61.0,29.94,NE,34,0.0,2.0,98,0.00,,,0.01,26,Wunderground v.1.15,2013-11-16 14:10:00,
2013-11-16 09:20:00,61.8,61.2,29.95,NE,34,0.0,2.0,98,0.00,,,0.01,35,Wunderground v.1.15,2013-11-16 14:20:00,
2013-11-16 09:30:00,62.1,61.5,29.95,NE,34,0.0,2.0,98,0.00,,,0.01,32,Wunderground v.1.15,2013-11-16 14:30:00,
2013-11-16 09:40:00,62.3,61.7,29.95,ENE,77,0.0,2.0,98,0.00,,,0.01,39,Wunderground v.1.15,2013-11-16 14:40:00,
2013-11-16 09:50:00,62.6,62.0,29.95,SSE,151,0.0,2.0,98,0.00,,,0.01,37,Wunderground v.1.15,2013-11-16 14:50:00,
2013-11-16 10:00:00,62.7,62.1,29.94,SE,144,0.0,2.0,98,0.00,,,0.01,30,Wunderground v.1.15,2013-11-16 15:00:00,
2013-11-16 10:05:00,62.7,62.1,29.94,SE,144,0.0,2.0,98,0.00,,,0.01,26,Wunderground v.1.15,2013-11-16 15:05:00,
2013-11-16 10:15:00,62.9,62.3,29.94,SSE,147,0.0,2.0,98,0.00,,,0.01,30,Wunderground v.1.15,2013-11-16 15:15:00,
2013-11-16 10:25:00,63.0,62.4,29.95,ENE,61,0.0,2.0,98,0.00,,,0.01,51,Wunderground v.1.15,2013-11-16 15:25:00,
2013-11-16 10:35:00,63.2,62.6,29.94,SE,145,0.0,2.0,98,0.00,,,0.01,60,Wunderground v.1.15,2013-11-16 15:35:00,
2013-11-16 10:45:00,63.5,62.9,29.95,South,188,0.0,2.0,98,0.00,,,0.01,114,Wunderground v.1.15,2013-11-16 15:45:00,
2013-11-16 10:55:00,63.8,63.2,29.95,SSW,194,0.0,2.0,98,0.00,,,0.01,60,Wunderground v.1.15,2013-11-16 15:55:00,
2013-11-16 11:05:00,63.9,63.3,29.95,SE,142,0.0,2.0,98,0.00,,,0.01,42,Wunderground v.1.15,2013-11-16 16:05:00,
2013-11-16 11:10:00,63.9,63.3,29.95,SE,125,0.0,2.0,98,0.00,,,0.01,84,Wunderground v.1.15,2013-11-16 16:10:00,
2013-11-16 11:20:00,64.1,63.5,29.94,ESE,109,0.0,2.0,98,0.00,,,0.01,100,Wunderground v.1.15,2013-11-16 16:20:00,
2013-11-16 11:25:00,64.3,63.7,29.95,SE,144,0.0,2.0,98,0.00,,,0.01,70,Wunderground v.1.15,2013-11-16 16:25:00,
2013-11-16 11:35:00,64.4,63.8,29.94,SE,136,0.0,2.0,98,0.00,,,0.01,42,Wunderground v.1.15,2013-11-16 16:35:00,
2013-11-16 11:45:00,64.5,63.9,29.95,SE,138,0.0,2.0,98,0.00,,,0.01,62,Wunderground v.1.15,2013-11-16 16:45:00,
2013-11-16 11:55:00,64.7,64.1,29.94,South,175,0.0,2.0,98,0.00,,,0.01,67,Wunderground v.1.15,2013-11-16 16:55:00,
2013-11-16 12:00:00,64.8,64.2,29.94,South,175,0.0,2.0,98,0.00,,,0.01,76,Wunderground v.1.15,2013-11-16 17:00:00,
2013-11-16 12:10:00,65.0,64.4,29.93,ESE,113,0.0,2.0,98,0.00,,,0.01,128,Wunderground v.1.15,2013-11-16 17:10:00,
2013-11-16 12:20:00,65.3,64.7,29.92,ESE,114,0.0,2.0,98,0.00,,,0.01,39,Wunderground v.1.15,2013-11-16 17:20:00,
2013-11-16 12:30:00,65.5,64.9,29.92,NW,315,0.0,2.0,98,0.00,,,0.01,46,Wunderground v.1.15,2013-11-16 17:30:00,
2013-11-16 12:35:00,65.6,65.0,29.92,NW,315,0.0,2.0,98,0.00,,,0.01,102,Wunderground v.1.15,2013-11-16 17:35:00,
2013-11-16 12:40:00,65.8,65.2,29.91,SSE,153,0.0,2.0,98,0.00,,,0.01,135,Wunderground v.1.15,2013-11-16 17:40:00,
2013-11-16 12:50:00,66.3,65.7,29.90,SE,134,1.0,1.0,98,0.00,,,0.01,91,Wunderground v.1.15,2013-11-16 17:50:00,
2013-11-16 13:00:00,66.7,66.1,29.89,SSE,153,0.0,1.0,98,0.00,,,0.01,65,Wunderground v.1.15,2013-11-16 18:00:00,
2013-11-16 13:10:00,67.0,66.1,29.88,SSE,168,0.0,2.0,97,0.00,,,0.01,123,Wunderground v.1.15,2013-11-16 18:10:00,
2013-11-16 13:20:00,67.3,66.1,29.87,SE,138,1.0,1.0,96,0.00,,,0.01,72,Wunderground v.1.15,2013-11-16 18:20:00,
2013-11-16 13:25:00,67.5,66.3,29.87,East,80,0.0,2.0,96,0.00,,,0.01,76,Wunderground v.1.15,2013-11-16 18:25:00,
2013-11-16 13:35:00,67.7,66.2,29.87,South,182,0.0,2.0,95,0.00,,,0.01,86,Wunderground v.1.15,2013-11-16 18:35:00,
2013-11-16 13:40:00,67.8,66.3,29.87,WSW,242,0.0,2.0,95,0.00,,,0.01,72,Wunderground v.1.15,2013-11-16 18:40:00,
2013-11-16 13:50:00,68.1,66.6,29.87,WSW,254,0.0,2.0,95,0.00,,,0.01,74,Wunderground v.1.15,2013-11-16 18:50:00,
2013-11-16 13:55:00,68.2,66.7,29.86,WSW,254,0.0,2.0,95,0.00,,,0.01,60,Wunderground v.1.15,2013-11-16 18:55:00,
2013-11-16 14:05:00,68.5,66.7,29.86,SSE,161,0.0,2.0,94,0.00,,,0.01,74,Wunderground v.1.15,2013-11-16 19:05:00,
2013-11-16 14:10:00,68.6,66.8,29.86,South,170,0.0,2.0,94,0.00,,,0.01,88,Wunderground v.1.15,2013-11-16 19:10:00,
2013-11-16 14:20:00,68.8,67.0,29.85,ESE,121,0.0,2.0,94,0.00,,,0.01,130,Wunderground v.1.15,2013-11-16 19:20:00,
2013-11-16 14:30:00,68.9,67.1,29.85,ESE,121,0.0,2.0,94,0.00,,,0.01,62,Wunderground v.1.15,2013-11-16 19:30:00,
2013-11-16 14:40:00,69.1,67.3,29.85,West,269,0.0,2.0,94,0.00,,,0.01,81,Wunderground v.1.15,2013-11-16 19:40:00,
2013-11-16 14:45:00,69.2,67.1,29.85,ENE,66,1.0,2.0,93,0.00,,,0.01,102,Wunderground v.1.15,2013-11-16 19:45:00,
2013-11-16 14:50:00,69.4,67.3,29.85,ESE,102,1.0,2.0,93,0.00,,,0.01,107,Wunderground v.1.15,2013-11-16 19:50:00,
2013-11-16 15:00:00,69.7,67.3,29.85,NE,53,0.0,2.0,92,0.00,,,0.01,118,Wunderground v.1.15,2013-11-16 20:00:00,
2013-11-16 15:10:00,70.1,67.7,29.84,ENE,75,0.0,2.0,92,0.00,,,0.01,162,Wunderground v.1.15,2013-11-16 20:10:00,
2013-11-16 15:20:00,70.6,68.2,29.83,East,96,1.0,1.0,92,0.00,,,0.01,436,Wunderground v.1.15,2013-11-16 20:20:00,
2013-11-16 15:25:00,71.0,68.2,29.83,WSW,238,0.0,2.0,91,0.00,,,0.01,111,Wunderground v.1.15,2013-11-16 20:25:00,
2013-11-16 15:30:00,71.3,68.2,29.83,WSW,256,0.0,2.0,90,0.00,,,0.01,144,Wunderground v.1.15,2013-11-16 20:30:00,
2013-11-16 15:40:00,71.7,68.3,29.83,SW,231,0.0,2.0,89,0.00,,,0.01,81,Wunderground v.1.15,2013-11-16 20:40:00,
2013-11-16 15:50:00,71.6,68.2,29.83,NNW,338,0.0,2.0,89,0.00,,,0.01,67,Wunderground v.1.15,2013-11-16 20:50:00,
2013-11-16 15:55:00,71.6,68.2,29.83,NW,318,0.0,2.0,89,0.00,,,0.01,49,Wunderground v.1.15,2013-11-16 20:55:00,
2013-11-16 16:00:00,71.6,68.2,29.83,WSW,242,0.0,2.0,89,0.00,,,0.01,37,Wunderground v.1.15,2013-11-16 21:00:00,
2013-11-16 16:05:00,71.6,68.2,29.83,WSW,242,0.0,2.0,89,0.00,,,0.01,65,Wunderground v.1.15,2013-11-16 21:05:00,
2013-11-16 16:15:00,71.6,68.2,29.83,ENE,71,0.0,2.0,89,0.00,,,0.01,104,Wunderground v.1.15,2013-11-16 21:15:00,
2013-11-16 16:25:00,71.4,68.3,29.82,ENE,71,0.0,2.0,90,0.00,,,0.01,53,Wunderground v.1.15,2013-11-16 21:25:00,
2013-11-16 16:30:00,71.4,68.3,29.82,ENE,71,0.0,2.0,90,0.00,,,0.01,69,Wunderground v.1.15,2013-11-16 21:30:00,
2013-11-16 16:35:00,71.5,68.4,29.82,ENE,71,0.0,2.0,90,0.00,,,0.01,100,Wunderground v.1.15,2013-11-16 21:35:00,
2013-11-16 16:45:00,71.8,68.7,29.82,NNE,21,0.0,2.0,90,0.00,,,0.01,69,Wunderground v.1.15,2013-11-16 21:45:00,
2013-11-16 16:50:00,71.8,68.7,29.82,NNE,21,0.0,2.0,90,0.00,,,0.01,63,Wunderground v.1.15,2013-11-16 21:50:00,
2013-11-16 16:55:00,71.8,68.7,29.81,SSE,159,0.0,2.0,90,0.00,,,0.01,58,Wunderground v.1.15,2013-11-16 21:55:00,
2013-11-16 17:00:00,71.8,68.7,29.81,SSE,159,0.0,2.0,90,0.00,,,0.01,63,Wunderground v.1.15,2013-11-16 22:00:00,
2013-11-16 17:05:00,71.9,68.5,29.81,South,189,0.0,2.0,89,0.00,,,0.01,51,Wunderground v.1.15,2013-11-16 22:05:00,
2013-11-16 17:10:00,71.9,68.5,29.81,South,189,0.0,2.0,89,0.00,,,0.01,39,Wunderground v.1.15,2013-11-16 22:10:00,
2013-11-16 17:20:00,71.9,68.5,29.81,South,189,0.0,2.0,89,0.00,,,0.01,39,Wunderground v.1.15,2013-11-16 22:20:00,
2013-11-16 17:30:00,71.9,68.5,29.81,South,188,0.0,2.0,89,0.00,,,0.01,25,Wunderground v.1.15,2013-11-16 22:30:00,
2013-11-16 17:35:00,71.9,68.5,29.81,South,188,0.0,2.0,89,0.00,,,0.01,23,Wunderground v.1.15,2013-11-16 22:35:00,
2013-11-16 17:45:00,71.7,68.3,29.81,ENE,77,0.0,2.0,89,0.00,,,0.01,9,Wunderground v.1.15,2013-11-16 22:45:00,
2013-11-16 17:50:00,71.6,68.2,29.81,ENE,77,0.0,2.0,89,0.00,,,0.01,7,Wunderground v.1.15,2013-11-16 22:50:00,
2013-11-16 17:55:00,71.5,68.1,29.81,ENE,77,0.0,2.0,89,0.00,,,0.01,7,Wunderground v.1.15,2013-11-16 22:55:00,
2013-11-16 18:05:00,71.3,67.9,29.81,ENE,77,0.0,2.0,89,0.00,,,0.01,0,Wunderground v.1.15,2013-11-16 23:05:00,
2013-11-16 18:10:00,71.2,67.8,29.81,ENE,77,0.0,2.0,89,0.00,,,0.01,0,Wunderground v.1.15,2013-11-16 23:10:00,
2013-11-16 18:15:00,71.1,68.0,29.81,ENE,77,0.0,2.0,90,0.00,,,0.01,0,Wunderground v.1.15,2013-11-16 23:15:00,
2013-11-16 18:25:00,70.8,67.7,29.81,ENE,77,0.0,2.0,90,0.00,,,0.01,0,Wunderground v.1.15,2013-11-16 23:25:00,
2013-11-16 18:30:00,70.8,67.7,29.81,East,97,0.0,2.0,90,0.00,,,0.01,0,Wunderground v.1.15,2013-11-16 23:30:00,
2013-11-16 18:40:00,70.7,67.6,29.81,East,97,0.0,2.0,90,0.00,,,0.01,0,Wunderground v.1.15,2013-11-16 23:40:00,
2013-11-16 18:50:00,70.8,67.4,29.82,SE,124,0.0,2.0,89,0.00,,,0.01,0,Wunderground v.1.15,2013-11-16 23:50:00,
2013-11-16 18:55:00,70.8,67.4,29.82,SE,124,0.0,2.0,89,0.00,,,0.01,0,Wunderground v.1.15,2013-11-16 23:55:00,
2013-11-16 19:00:00,70.9,67.5,29.82,SE,124,0.0,0.0,89,0.00,,,0.01,0,Wunderground v.1.15,2013-11-17 00:00:00,
2013-11-16 19:10:00,71.1,67.7,29.82,SSE,159,0.0,0.0,89,0.00,,,0.01,0,Wunderground v.1.15,2013-11-17 00:10:00,
2013-11-16 19:20:00,71.2,67.5,29.82,SSE,159,0.0,0.0,88,0.00,,,0.01,0,Wunderground v.1.15,2013-11-17 00:20:00,
2013-11-16 19:30:00,71.1,67.4,29.82,SSE,159,0.0,0.0,88,0.00,,,0.01,0,Wunderground v.1.15,2013-11-17 00:30:00,
2013-11-16 19:35:00,71.0,67.6,29.82,SSE,159,0.0,0.0,89,0.00,,,0.01,0,Wunderground v.1.15,2013-11-17 00:35:00,
2013-11-16 19:45:00,70.9,67.5,29.83,SSE,159,0.0,0.0,89,0.00,,,0.01,0,Wunderground v.1.15,2013-11-17 00:45:00,
2013-11-16 19:50:00,70.9,67.5,29.82,SSE,158,0.0,0.0,89,0.00,,,0.01,0,Wunderground v.1.15,2013-11-17 00:50:00,
2013-11-16 20:00:00,70.8,67.4,29.82,ENE,74,0.0,0.0,89,0.00,,,0.01,0,Wunderground v.1.15,2013-11-17 01:00:00,
2013-11-16 20:05:00,70.8,67.4,29.82,SSE,163,0.0,0.0,89,0.00,,,0.01,0,Wunderground v.1.15,2013-11-17 01:05:00,
2013-11-16 20:10:00,70.8,67.4,29.82,SSE,148,0.0,0.0,89,0.00,,,0.01,0,Wunderground v.1.15,2013-11-17 01:10:00,
2013-11-16 20:15:00,70.9,67.5,29.82,SE,141,0.0,0.0,89,0.00,,,0.01,0,Wunderground v.1.15,2013-11-17 01:15:00,
2013-11-16 20:20:00,70.9,67.2,29.82,SE,141,0.0,0.0,88,0.00,,,0.01,0,Wunderground v.1.15,2013-11-17 01:20:00,
2013-11-16 20:30:00,70.8,67.4,29.83,SE,141,0.0,0.0,89,0.00,,,0.01,0,Wunderground v.1.15,2013-11-17 01:30:00,
2013-11-16 20:40:00,70.7,67.3,29.83,SE,141,0.0,0.0,89,0.00,,,0.01,0,Wunderground v.1.15,2013-11-17 01:40:00,
2013-11-16 20:50:00,70.6,67.2,29.83,SE,141,0.0,0.0,89,0.00,,,0.01,0,Wunderground v.1.15,2013-11-17 01:50:00,
2013-11-16 21:00:00,70.6,67.2,29.83,SE,141,0.0,0.0,89,0.00,,,0.01,0,Wunderground v.1.15,2013-11-17 02:00:00,
2013-11-16 21:05:00,70.6,67.2,29.83,SE,141,0.0,0.0,89,0.00,,,0.01,0,Wunderground v.1.15,2013-11-17 02:05:00,
2013-11-16 21:10:00,70.6,67.2,29.84,SE,141,0.0,0.0,89,0.00,,,0.01,0,Wunderground v.1.15,2013-11-17 02:10:00,
2013-11-16 21:20:00,70.7,67.3,29.83,SSE,151,0.0,0.0,89,0.00,,,0.01,0,Wunderground v.1.15,2013-11-17 02:20:00,
2013-11-16 21:30:00,70.9,67.2,29.83,SE,128,0.0,0.0,88,0.00,,,0.01,0,Wunderground v.1.15,2013-11-17 02:30:00,
2013-11-16 21:40:00,71.0,67.3,29.83,SSW,195,0.0,0.0,88,0.00,,,0.01,0,Wunderground v.1.15,2013-11-17 02:40:00,
2013-11-16 21:45:00,71.1,67.4,29.83,East,86,0.0,0.0,88,0.00,,,0.01,0,Wunderground v.1.15,2013-11-17 02:45:00,
2013-11-16 21:50:00,71.1,67.4,29.83,West,270,0.0,0.0,88,0.00,,,0.01,0,Wunderground v.1.15,2013-11-17 02:50:00,
2013-11-16 22:00:00,71.0,67.3,29.84,WSW,240,0.0,0.0,88,0.00,,,0.01,0,Wunderground v.1.15,2013-11-17 03:00:00,
2013-11-16 22:05:00,71.0,67.3,29.84,SW,231,0.0,0.0,88,0.00,,,0.01,0,Wunderground v.1.15,2013-11-17 03:05:00,
2013-11-16 22:15:00,70.8,67.4,29.84,SSW,200,0.0,0.0,89,0.00,,,0.01,0,Wunderground v.1.15,2013-11-17 03:15:00,
2013-11-16 22:20:00,70.7,67.3,29.84,SW,236,0.0,0.0,89,0.00,,,0.01,0,Wunderground v.1.15,2013-11-17 03:20:00,
2013-11-16 22:30:00,70.7,67.6,29.84,WSW,240,0.0,0.0,90,0.00,,,0.01,0,Wunderground v.1.15,2013-11-17 03:30:00,
2013-11-16 22:40:00,70.5,67.4,29.85,South,173,0.0,0.0,90,0.00,,,0.01,0,Wunderground v.1.15,2013-11-17 03:40:00,
2013-11-16 22:45:00,70.5,67.4,29.85,ESE,111,0.0,0.0,90,0.00,,,0.01,0,Wunderground v.1.15,2013-11-17 03:45:00,
2013-11-16 22:50:00,70.5,67.4,29.85,SSE,167,0.0,0.0,90,0.00,,,0.01,0,Wunderground v.1.15,2013-11-17 03:50:00,
2013-11-16 23:00:00,70.3,67.2,29.84,SE,146,0.0,0.0,90,0.00,,,0.01,0,Wunderground v.1.15,2013-11-17 04:00:00,
2013-11-16 23:10:00,70.2,67.1,29.85,SW,219,0.0,0.0,90,0.00,,,0.01,0,Wunderground v.1.15,2013-11-17 04:10:00,
2013-11-16 23:20:00,69.9,67.2,29.85,SSE,165,0.0,0.0,91,0.00,,,0.01,0,Wunderground v.1.15,2013-11-17 04:20:00,
2013-11-16 23:25:00,69.8,67.1,29.85,SSE,160,0.0,0.0,91,0.00,,,0.01,0,Wunderground v.1.15,2013-11-17 04:25:00,
2013-11-16 23:35:00,69.8,67.1,29.85,South,169,0.0,0.0,91,0.00,,,0.01,0,Wunderground v.1.15,2013-11-17 04:35:00,
2013-11-16 23:40:00,69.8,67.1,29.84,SSW,210,0.0,0.0,91,0.00,,,0.01,0,Wunderground v.1.15,2013-11-17 04:40:00,
2013-11-16 23:50:00,69.7,67.0,29.84,ESE,103,0.0,0.0,91,0.00,,,0.01,0,Wunderground v.1.15,2013-11-17 04:50:00,